sensor_id;sensor_type;location;lat;lon;timestamp;temperature;humidity
45685;DHT22;46836;48.388;16.210;2023-04-25T00:00:19;10.70;99.90
45685;DHT22;46836;48.388;16.210;2023-04-25T00:02:46;10.70;99.90
45685;DHT22;46836;48.388;16.210;2023-04-25T00:05:14;10.70;99.90
45685;DHT22;46836;48.388;16.210;2023-04-25T00:07:44;10.70;99.90
45685;DHT22;46836;48.388;16.210;2023-04-25T00:10:11;10.70;99.90
45685;DHT22;46836;48.388;16.210;2023-04-25T00:12:39;10.70;99.90
45685;DHT22;46836;48.388;16.210;2023-04-25T00:15:07;10.70;99.90
45685;DHT22;46836;48.388;16.210;2023-04-25T00:17:34;10.70;99.90
45685;DHT22;46836;48.388;16.210;2023-04-25T00:20:01;10.70;99.90
45685;DHT22;46836;48.388;16.210;2023-04-25T00:22:32;10.70;99.90
45685;DHT22;46836;48.388;16.210;2023-04-25T00:25:01;10.70;99.90
45685;DHT22;46836;48.388;16.210;2023-04-25T00:27:28;10.70;99.90
45685;DHT22;46836;48.388;16.210;2023-04-25T00:29:54;10.60;99.90
45685;DHT22;46836;48.388;16.210;2023-04-25T00:32:21;10.60;99.90
45685;DHT22;46836;48.388;16.210;2023-04-25T00:34:48;10.60;99.90
45685;DHT22;46836;48.388;16.210;2023-04-25T00:37:16;10.60;99.90
45685;DHT22;46836;48.388;16.210;2023-04-25T00:39:43;10.50;99.90
45685;DHT22;46836;48.388;16.210;2023-04-25T00:42:10;10.50;99.90
45685;DHT22;46836;48.388;16.210;2023-04-25T00:44:37;10.50;99.90
45685;DHT22;46836;48.388;16.210;2023-04-25T00:47:05;10.50;99.90
45685;DHT22;46836;48.388;16.210;2023-04-25T00:49:32;10.40;99.90
45685;DHT22;46836;48.388;16.210;2023-04-25T00:52:00;10.40;99.90
45685;DHT22;46836;48.388;16.210;2023-04-25T00:54:27;10.40;99.90
45685;DHT22;46836;48.388;16.210;2023-04-25T00:56:54;10.40;99.90
45685;DHT22;46836;48.388;16.210;2023-04-25T00:59:21;10.40;99.90
45685;DHT22;46836;48.388;16.210;2023-04-25T01:01:49;10.40;99.90
45685;DHT22;46836;48.388;16.210;2023-04-25T01:04:16;10.40;99.90
45685;DHT22;46836;48.388;16.210;2023-04-25T01:06:44;10.40;99.90
45685;DHT22;46836;48.388;16.210;2023-04-25T01:09:12;10.40;99.90
45685;DHT22;46836;48.388;16.210;2023-04-25T01:11:39;10.40;99.90
45685;DHT22;46836;48.388;16.210;2023-04-25T01:14:07;10.40;99.90
45685;DHT22;46836;48.388;16.210;2023-04-25T01:16:34;10.40;99.90
45685;DHT22;46836;48.388;16.210;2023-04-25T01:19:01;10.40;99.90
45685;DHT22;46836;48.388;16.210;2023-04-25T01:21:30;10.40;99.90
45685;DHT22;46836;48.388;16.210;2023-04-25T01:23:58;10.40;99.90
45685;DHT22;46836;48.388;16.210;2023-04-25T01:26:25;10.40;99.90
45685;DHT22;46836;48.388;16.210;2023-04-25T01:28:52;10.40;99.90
45685;DHT22;46836;48.388;16.210;2023-04-25T01:31:19;10.40;99.90
45685;DHT22;46836;48.388;16.210;2023-04-25T01:33:47;10.30;99.90
45685;DHT22;46836;48.388;16.210;2023-04-25T01:36:15;10.40;99.90
45685;DHT22;46836;48.388;16.210;2023-04-25T01:38:42;10.40;99.90
45685;DHT22;46836;48.388;16.210;2023-04-25T01:41:10;10.30;99.90
45685;DHT22;46836;48.388;16.210;2023-04-25T01:43:38;10.30;99.90
45685;DHT22;46836;48.388;16.210;2023-04-25T01:46:05;10.30;99.90
45685;DHT22;46836;48.388;16.210;2023-04-25T01:48:32;10.30;99.90
45685;DHT22;46836;48.388;16.210;2023-04-25T01:50:59;10.30;99.90
45685;DHT22;46836;48.388;16.210;2023-04-25T01:53:26;10.30;99.90
45685;DHT22;46836;48.388;16.210;2023-04-25T01:55:53;10.30;99.90
45685;DHT22;46836;48.388;16.210;2023-04-25T01:58:20;10.30;99.90
45685;DHT22;46836;48.388;16.210;2023-04-25T02:03:31;10.30;99.90
45685;DHT22;46836;48.388;16.210;2023-04-25T02:05:59;10.30;99.90
45685;DHT22;46836;48.388;16.210;2023-04-25T02:08:26;10.30;99.90
45685;DHT22;46836;48.388;16.210;2023-04-25T02:10:53;10.30;99.90
45685;DHT22;46836;48.388;16.210;2023-04-25T02:13:20;10.30;99.90
45685;DHT22;46836;48.388;16.210;2023-04-25T02:15:47;10.30;99.90
45685;DHT22;46836;48.388;16.210;2023-04-25T02:18:14;10.30;99.90
45685;DHT22;46836;48.388;16.210;2023-04-25T02:20:43;10.30;99.90
45685;DHT22;46836;48.388;16.210;2023-04-25T02:23:11;10.30;99.90
45685;DHT22;46836;48.388;16.210;2023-04-25T02:25:38;10.20;99.90
45685;DHT22;46836;48.388;16.210;2023-04-25T02:28:05;10.20;99.90
45685;DHT22;46836;48.388;16.210;2023-04-25T02:30:32;10.20;99.90
45685;DHT22;46836;48.388;16.210;2023-04-25T02:32:59;10.20;99.90
45685;DHT22;46836;48.388;16.210;2023-04-25T02:35:28;10.20;99.90
45685;DHT22;46836;48.388;16.210;2023-04-25T02:37:55;10.10;99.90
45685;DHT22;46836;48.388;16.210;2023-04-25T02:40:22;10.10;99.90
45685;DHT22;46836;48.388;16.210;2023-04-25T02:42:49;10.10;99.90
45685;DHT22;46836;48.388;16.210;2023-04-25T02:45:17;10.10;99.90
45685;DHT22;46836;48.388;16.210;2023-04-25T02:47:43;10.10;99.90
45685;DHT22;46836;48.388;16.210;2023-04-25T02:50:11;10.00;99.90
45685;DHT22;46836;48.388;16.210;2023-04-25T02:52:38;10.00;99.90
45685;DHT22;46836;48.388;16.210;2023-04-25T02:55:05;9.90;99.90
45685;DHT22;46836;48.388;16.210;2023-04-25T02:57:32;9.90;99.90
45685;DHT22;46836;48.388;16.210;2023-04-25T02:59:59;9.90;99.90
45685;DHT22;46836;48.388;16.210;2023-04-25T03:02:26;9.90;99.90
45685;DHT22;46836;48.388;16.210;2023-04-25T03:04:54;9.80;99.90
45685;DHT22;46836;48.388;16.210;2023-04-25T03:07:21;9.80;99.90
45685;DHT22;46836;48.388;16.210;2023-04-25T03:09:48;9.80;99.90
45685;DHT22;46836;48.388;16.210;2023-04-25T03:12:15;9.80;99.90
45685;DHT22;46836;48.388;16.210;2023-04-25T03:14:42;9.70;99.90
45685;DHT22;46836;48.388;16.210;2023-04-25T03:17:09;9.70;99.90
45685;DHT22;46836;48.388;16.210;2023-04-25T03:19:36;9.60;99.90
45685;DHT22;46836;48.388;16.210;2023-04-25T03:22:03;9.60;99.90
45685;DHT22;46836;48.388;16.210;2023-04-25T03:24:30;9.60;99.90
45685;DHT22;46836;48.388;16.210;2023-04-25T03:26:58;9.60;99.90
45685;DHT22;46836;48.388;16.210;2023-04-25T03:29:25;9.60;99.90
45685;DHT22;46836;48.388;16.210;2023-04-25T03:31:53;9.50;99.90
45685;DHT22;46836;48.388;16.210;2023-04-25T03:34:20;9.50;99.90
45685;DHT22;46836;48.388;16.210;2023-04-25T03:36:50;9.50;99.90
45685;DHT22;46836;48.388;16.210;2023-04-25T03:39:17;9.50;99.90
45685;DHT22;46836;48.388;16.210;2023-04-25T03:41:44;9.40;99.90
45685;DHT22;46836;48.388;16.210;2023-04-25T03:44:11;9.40;99.90
45685;DHT22;46836;48.388;16.210;2023-04-25T03:46:38;9.40;99.90
45685;DHT22;46836;48.388;16.210;2023-04-25T03:49:05;9.30;99.90
45685;DHT22;46836;48.388;16.210;2023-04-25T03:51:32;9.30;99.90
45685;DHT22;46836;48.388;16.210;2023-04-25T03:53:59;9.30;99.90
45685;DHT22;46836;48.388;16.210;2023-04-25T03:56:27;9.30;99.90
45685;DHT22;46836;48.388;16.210;2023-04-25T03:58:54;9.20;99.90
45685;DHT22;46836;48.388;16.210;2023-04-25T04:01:21;9.20;99.90
45685;DHT22;46836;48.388;16.210;2023-04-25T04:03:48;9.20;99.90
45685;DHT22;46836;48.388;16.210;2023-04-25T04:06:16;9.10;99.90
45685;DHT22;46836;48.388;16.210;2023-04-25T04:08:43;9.10;99.90
45685;DHT22;46836;48.388;16.210;2023-04-25T04:11:10;9.10;99.90
45685;DHT22;46836;48.388;16.210;2023-04-25T04:13:37;9.00;99.90
45685;DHT22;46836;48.388;16.210;2023-04-25T04:16:05;9.00;99.90
45685;DHT22;46836;48.388;16.210;2023-04-25T04:18:32;9.00;99.90
45685;DHT22;46836;48.388;16.210;2023-04-25T04:21:00;8.90;99.90
45685;DHT22;46836;48.388;16.210;2023-04-25T04:23:27;8.90;99.90
45685;DHT22;46836;48.388;16.210;2023-04-25T04:25:55;8.80;99.90
45685;DHT22;46836;48.388;16.210;2023-04-25T04:28:23;8.70;99.90
45685;DHT22;46836;48.388;16.210;2023-04-25T04:30:50;8.70;99.90
45685;DHT22;46836;48.388;16.210;2023-04-25T04:33:18;8.70;99.90
45685;DHT22;46836;48.388;16.210;2023-04-25T04:35:47;8.60;99.90
45685;DHT22;46836;48.388;16.210;2023-04-25T04:38:15;8.60;99.90
45685;DHT22;46836;48.388;16.210;2023-04-25T04:40:42;8.60;99.90
45685;DHT22;46836;48.388;16.210;2023-04-25T04:43:09;8.60;99.90
45685;DHT22;46836;48.388;16.210;2023-04-25T04:45:37;8.50;99.90
45685;DHT22;46836;48.388;16.210;2023-04-25T04:48:07;8.50;99.90
45685;DHT22;46836;48.388;16.210;2023-04-25T04:50:34;8.40;99.90
45685;DHT22;46836;48.388;16.210;2023-04-25T04:53:03;8.40;99.90
45685;DHT22;46836;48.388;16.210;2023-04-25T04:55:31;8.40;99.90
45685;DHT22;46836;48.388;16.210;2023-04-25T04:57:58;8.40;99.90
45685;DHT22;46836;48.388;16.210;2023-04-25T05:00:25;8.40;99.90
45685;DHT22;46836;48.388;16.210;2023-04-25T05:02:55;8.40;99.90
45685;DHT22;46836;48.388;16.210;2023-04-25T05:05:23;8.40;99.90
45685;DHT22;46836;48.388;16.210;2023-04-25T05:07:50;8.40;99.90
45685;DHT22;46836;48.388;16.210;2023-04-25T05:10:18;8.40;99.90
45685;DHT22;46836;48.388;16.210;2023-04-25T05:12:45;8.40;99.90
45685;DHT22;46836;48.388;16.210;2023-04-25T05:15:13;8.40;99.90
45685;DHT22;46836;48.388;16.210;2023-04-25T05:17:40;8.50;99.90
45685;DHT22;46836;48.388;16.210;2023-04-25T05:20:08;8.50;99.90
45685;DHT22;46836;48.388;16.210;2023-04-25T05:22:37;8.60;99.90
45685;DHT22;46836;48.388;16.210;2023-04-25T05:25:05;8.70;99.90
45685;DHT22;46836;48.388;16.210;2023-04-25T05:27:32;8.70;99.90
45685;DHT22;46836;48.388;16.210;2023-04-25T05:29:59;8.80;99.90
45685;DHT22;46836;48.388;16.210;2023-04-25T05:32:26;8.90;99.90
45685;DHT22;46836;48.388;16.210;2023-04-25T05:34:54;8.90;99.90
45685;DHT22;46836;48.388;16.210;2023-04-25T05:37:21;9.00;99.90
45685;DHT22;46836;48.388;16.210;2023-04-25T05:39:48;9.10;99.90
45685;DHT22;46836;48.388;16.210;2023-04-25T05:42:15;9.20;99.90
45685;DHT22;46836;48.388;16.210;2023-04-25T05:44:42;9.30;99.90
45685;DHT22;46836;48.388;16.210;2023-04-25T05:47:09;9.40;99.90
45685;DHT22;46836;48.388;16.210;2023-04-25T05:49:36;9.50;99.90
45685;DHT22;46836;48.388;16.210;2023-04-25T05:52:04;9.60;99.90
45685;DHT22;46836;48.388;16.210;2023-04-25T05:54:31;9.70;99.90
45685;DHT22;46836;48.388;16.210;2023-04-25T05:56:58;9.90;99.90
45685;DHT22;46836;48.388;16.210;2023-04-25T05:59:25;9.90;99.90
45685;DHT22;46836;48.388;16.210;2023-04-25T06:01:52;10.00;99.90
45685;DHT22;46836;48.388;16.210;2023-04-25T06:04:19;10.10;99.90
45685;DHT22;46836;48.388;16.210;2023-04-25T06:06:47;10.30;99.90
45685;DHT22;46836;48.388;16.210;2023-04-25T06:09:14;10.50;99.90
45685;DHT22;46836;48.388;16.210;2023-04-25T06:11:41;10.70;99.90
45685;DHT22;46836;48.388;16.210;2023-04-25T06:14:08;10.70;99.90
45685;DHT22;46836;48.388;16.210;2023-04-25T06:16:35;10.90;99.90
45685;DHT22;46836;48.388;16.210;2023-04-25T06:19:02;10.90;99.90
45685;DHT22;46836;48.388;16.210;2023-04-25T06:21:30;10.80;99.90
45685;DHT22;46836;48.388;16.210;2023-04-25T06:23:58;10.90;99.90
45685;DHT22;46836;48.388;16.210;2023-04-25T06:26:25;10.90;99.90
45685;DHT22;46836;48.388;16.210;2023-04-25T06:28:52;11.00;99.90
45685;DHT22;46836;48.388;16.210;2023-04-25T06:31:19;11.00;99.90
45685;DHT22;46836;48.388;16.210;2023-04-25T06:33:46;11.00;99.90
45685;DHT22;46836;48.388;16.210;2023-04-25T06:36:15;11.10;99.90
45685;DHT22;46836;48.388;16.210;2023-04-25T06:38:42;11.10;99.90
45685;DHT22;46836;48.388;16.210;2023-04-25T06:41:09;11.20;99.90
45685;DHT22;46836;48.388;16.210;2023-04-25T06:43:36;11.20;99.90
45685;DHT22;46836;48.388;16.210;2023-04-25T06:46:03;11.30;99.90
45685;DHT22;46836;48.388;16.210;2023-04-25T06:48:30;11.40;99.90
45685;DHT22;46836;48.388;16.210;2023-04-25T06:50:57;11.50;99.90
45685;DHT22;46836;48.388;16.210;2023-04-25T06:53:24;11.50;99.90
45685;DHT22;46836;48.388;16.210;2023-04-25T06:55:51;11.60;99.90
45685;DHT22;46836;48.388;16.210;2023-04-25T06:58:18;11.70;99.90
45685;DHT22;46836;48.388;16.210;2023-04-25T07:00:45;11.90;99.90
45685;DHT22;46836;48.388;16.210;2023-04-25T07:03:12;12.00;99.90
45685;DHT22;46836;48.388;16.210;2023-04-25T07:05:40;12.10;99.90
45685;DHT22;46836;48.388;16.210;2023-04-25T07:08:07;12.10;99.90
45685;DHT22;46836;48.388;16.210;2023-04-25T07:10:34;12.30;99.90
45685;DHT22;46836;48.388;16.210;2023-04-25T07:13:01;12.30;99.90
45685;DHT22;46836;48.388;16.210;2023-04-25T07:15:28;12.40;99.90
45685;DHT22;46836;48.388;16.210;2023-04-25T07:17:56;12.50;99.90
45685;DHT22;46836;48.388;16.210;2023-04-25T07:20:23;12.60;99.90
45685;DHT22;46836;48.388;16.210;2023-04-25T07:22:50;12.70;99.90
45685;DHT22;46836;48.388;16.210;2023-04-25T07:25:17;12.80;99.90
45685;DHT22;46836;48.388;16.210;2023-04-25T07:27:44;12.90;99.90
45685;DHT22;46836;48.388;16.210;2023-04-25T07:30:11;12.90;99.90
45685;DHT22;46836;48.388;16.210;2023-04-25T07:32:39;13.00;99.90
45685;DHT22;46836;48.388;16.210;2023-04-25T07:35:06;13.00;99.90
45685;DHT22;46836;48.388;16.210;2023-04-25T07:37:35;13.10;99.90
45685;DHT22;46836;48.388;16.210;2023-04-25T07:40:05;13.30;99.90
45685;DHT22;46836;48.388;16.210;2023-04-25T07:42:32;13.20;99.90
45685;DHT22;46836;48.388;16.210;2023-04-25T07:45:00;13.30;99.90
45685;DHT22;46836;48.388;16.210;2023-04-25T07:47:27;13.50;99.90
45685;DHT22;46836;48.388;16.210;2023-04-25T07:49:54;13.60;99.90
45685;DHT22;46836;48.388;16.210;2023-04-25T07:52:22;13.70;99.90
45685;DHT22;46836;48.388;16.210;2023-04-25T07:54:50;13.90;99.90
45685;DHT22;46836;48.388;16.210;2023-04-25T07:57:18;14.10;99.90
45685;DHT22;46836;48.388;16.210;2023-04-25T07:59:46;14.20;99.90
45685;DHT22;46836;48.388;16.210;2023-04-25T08:02:13;14.50;99.90
45685;DHT22;46836;48.388;16.210;2023-04-25T08:04:40;14.70;99.90
45685;DHT22;46836;48.388;16.210;2023-04-25T08:07:07;14.90;99.90
45685;DHT22;46836;48.388;16.210;2023-04-25T08:09:34;15.10;99.90
45685;DHT22;46836;48.388;16.210;2023-04-25T08:12:04;15.10;99.90
45685;DHT22;46836;48.388;16.210;2023-04-25T08:14:31;15.10;99.90
45685;DHT22;46836;48.388;16.210;2023-04-25T08:17:03;14.90;99.90
45685;DHT22;46836;48.388;16.210;2023-04-25T08:19:30;15.00;99.90
45685;DHT22;46836;48.388;16.210;2023-04-25T08:21:57;15.00;99.90
45685;DHT22;46836;48.388;16.210;2023-04-25T08:24:24;14.80;99.90
45685;DHT22;46836;48.388;16.210;2023-04-25T08:26:52;14.80;99.90
45685;DHT22;46836;48.388;16.210;2023-04-25T08:29:19;14.80;99.90
45685;DHT22;46836;48.388;16.210;2023-04-25T08:31:46;14.80;99.90
45685;DHT22;46836;48.388;16.210;2023-04-25T08:34:15;14.80;99.90
45685;DHT22;46836;48.388;16.210;2023-04-25T08:36:42;15.10;99.90
45685;DHT22;46836;48.388;16.210;2023-04-25T08:39:09;15.40;99.90
45685;DHT22;46836;48.388;16.210;2023-04-25T08:41:37;15.70;99.90
45685;DHT22;46836;48.388;16.210;2023-04-25T08:44:05;15.90;99.90
45685;DHT22;46836;48.388;16.210;2023-04-25T08:46:33;16.10;99.90
45685;DHT22;46836;48.388;16.210;2023-04-25T08:49:01;16.20;99.90
45685;DHT22;46836;48.388;16.210;2023-04-25T08:51:32;16.10;99.90
45685;DHT22;46836;48.388;16.210;2023-04-25T08:54:10;16.10;99.90
45685;DHT22;46836;48.388;16.210;2023-04-25T08:57:00;16.20;99.90
45685;DHT22;46836;48.388;16.210;2023-04-25T08:59:32;16.30;99.90
45685;DHT22;46836;48.388;16.210;2023-04-25T09:02:00;16.30;99.90
45685;DHT22;46836;48.388;16.210;2023-04-25T09:04:29;16.50;99.90
45685;DHT22;46836;48.388;16.210;2023-04-25T09:06:57;16.60;99.90
45685;DHT22;46836;48.388;16.210;2023-04-25T09:09:25;16.30;99.90
45685;DHT22;46836;48.388;16.210;2023-04-25T09:11:54;16.50;99.90
45685;DHT22;46836;48.388;16.210;2023-04-25T09:14:22;16.60;99.90
45685;DHT22;46836;48.388;16.210;2023-04-25T09:19:23;16.50;99.90
45685;DHT22;46836;48.388;16.210;2023-04-25T09:22:06;16.40;99.90
45685;DHT22;46836;48.388;16.210;2023-04-25T09:24:44;15.90;99.90
45685;DHT22;46836;48.388;16.210;2023-04-25T09:27:20;15.20;99.90
45685;DHT22;46836;48.388;16.210;2023-04-25T09:29:58;14.70;99.90
45685;DHT22;46836;48.388;16.210;2023-04-25T09:32:28;14.50;99.90
45685;DHT22;46836;48.388;16.210;2023-04-25T09:34:56;14.50;99.90
45685;DHT22;46836;48.388;16.210;2023-04-25T09:37:29;14.40;99.90
45685;DHT22;46836;48.388;16.210;2023-04-25T09:39:58;14.50;99.90
45685;DHT22;46836;48.388;16.210;2023-04-25T09:42:27;14.50;99.90
45685;DHT22;46836;48.388;16.210;2023-04-25T09:44:56;14.60;99.90
45685;DHT22;46836;48.388;16.210;2023-04-25T09:47:25;14.50;99.90
45685;DHT22;46836;48.388;16.210;2023-04-25T09:49:54;14.60;99.90
45685;DHT22;46836;48.388;16.210;2023-04-25T09:52:25;14.80;99.90
45685;DHT22;46836;48.388;16.210;2023-04-25T09:54:53;15.20;99.90
45685;DHT22;46836;48.388;16.210;2023-04-25T09:57:22;15.50;99.90
45685;DHT22;46836;48.388;16.210;2023-04-25T09:59:54;15.50;99.90
45685;DHT22;46836;48.388;16.210;2023-04-25T10:02:23;15.70;99.90
45685;DHT22;46836;48.388;16.210;2023-04-25T10:04:55;15.90;99.90
45685;DHT22;46836;48.388;16.210;2023-04-25T10:07:26;16.20;99.90
45685;DHT22;46836;48.388;16.210;2023-04-25T10:09:59;16.40;99.90
45685;DHT22;46836;48.388;16.210;2023-04-25T10:12:27;16.70;99.90
45685;DHT22;46836;48.388;16.210;2023-04-25T10:14:55;17.00;99.90
45685;DHT22;46836;48.388;16.210;2023-04-25T10:17:22;17.10;99.90
45685;DHT22;46836;48.388;16.210;2023-04-25T10:19:51;17.00;99.90
45685;DHT22;46836;48.388;16.210;2023-04-25T10:22:26;16.70;99.90
45685;DHT22;46836;48.388;16.210;2023-04-25T10:24:56;16.50;99.90
45685;DHT22;46836;48.388;16.210;2023-04-25T10:27:24;16.50;99.90
45685;DHT22;46836;48.388;16.210;2023-04-25T10:30:06;16.80;99.90
45685;DHT22;46836;48.388;16.210;2023-04-25T10:32:37;17.10;99.90
45685;DHT22;46836;48.388;16.210;2023-04-25T10:35:30;17.30;99.90
45685;DHT22;46836;48.388;16.210;2023-04-25T10:37:59;17.00;99.90
45685;DHT22;46836;48.388;16.210;2023-04-25T10:40:26;17.00;99.90
45685;DHT22;46836;48.388;16.210;2023-04-25T10:42:54;16.90;99.90
45685;DHT22;46836;48.388;16.210;2023-04-25T10:45:23;17.00;99.90
45685;DHT22;46836;48.388;16.210;2023-04-25T10:47:50;17.00;99.90
45685;DHT22;46836;48.388;16.210;2023-04-25T10:50:17;16.80;99.90
45685;DHT22;46836;48.388;16.210;2023-04-25T10:52:44;16.50;99.90
45685;DHT22;46836;48.388;16.210;2023-04-25T10:55:12;16.20;99.90
45685;DHT22;46836;48.388;16.210;2023-04-25T10:57:44;16.00;99.90
45685;DHT22;46836;48.388;16.210;2023-04-25T11:00:17;15.80;99.90
45685;DHT22;46836;48.388;16.210;2023-04-25T11:02:52;15.70;99.90
45685;DHT22;46836;48.388;16.210;2023-04-25T11:05:23;15.70;99.90
45685;DHT22;46836;48.388;16.210;2023-04-25T11:07:54;15.50;99.90
45685;DHT22;46836;48.388;16.210;2023-04-25T11:10:33;15.50;99.90
45685;DHT22;46836;48.388;16.210;2023-04-25T11:13:04;15.40;99.90
45685;DHT22;46836;48.388;16.210;2023-04-25T11:15:31;15.30;99.90
45685;DHT22;46836;48.388;16.210;2023-04-25T11:17:58;15.30;99.90
45685;DHT22;46836;48.388;16.210;2023-04-25T11:20:26;15.30;99.90
45685;DHT22;46836;48.388;16.210;2023-04-25T11:22:58;15.30;99.90
45685;DHT22;46836;48.388;16.210;2023-04-25T11:25:26;15.30;99.90
45685;DHT22;46836;48.388;16.210;2023-04-25T11:27:55;15.30;99.90
45685;DHT22;46836;48.388;16.210;2023-04-25T11:30:25;15.50;99.90
45685;DHT22;46836;48.388;16.210;2023-04-25T11:32:53;15.60;99.90
45685;DHT22;46836;48.388;16.210;2023-04-25T11:35:20;15.80;99.90
45685;DHT22;46836;48.388;16.210;2023-04-25T11:37:50;16.00;99.90
45685;DHT22;46836;48.388;16.210;2023-04-25T11:40:17;16.10;99.90
45685;DHT22;46836;48.388;16.210;2023-04-25T11:42:46;16.10;99.90
45685;DHT22;46836;48.388;16.210;2023-04-25T11:45:14;16.30;99.90
45685;DHT22;46836;48.388;16.210;2023-04-25T11:47:41;16.60;99.90
45685;DHT22;46836;48.388;16.210;2023-04-25T11:50:09;16.80;99.90
45685;DHT22;46836;48.388;16.210;2023-04-25T11:52:37;17.20;99.90
45685;DHT22;46836;48.388;16.210;2023-04-25T11:55:07;17.40;99.90
45685;DHT22;46836;48.388;16.210;2023-04-25T11:57:40;17.70;99.90
45685;DHT22;46836;48.388;16.210;2023-04-25T12:00:16;17.70;99.90
45685;DHT22;46836;48.388;16.210;2023-04-25T12:02:47;17.50;99.90
45685;DHT22;46836;48.388;16.210;2023-04-25T12:05:15;17.30;99.90
45685;DHT22;46836;48.388;16.210;2023-04-25T12:08:12;17.10;99.90
45685;DHT22;46836;48.388;16.210;2023-04-25T12:10:40;16.80;99.90
45685;DHT22;46836;48.388;16.210;2023-04-25T12:13:25;16.70;99.90
45685;DHT22;46836;48.388;16.210;2023-04-25T12:15:54;16.50;99.90
45685;DHT22;46836;48.388;16.210;2023-04-25T12:18:24;16.40;99.90
45685;DHT22;46836;48.388;16.210;2023-04-25T12:20:55;16.40;99.90
45685;DHT22;46836;48.388;16.210;2023-04-25T12:23:29;16.70;99.90
45685;DHT22;46836;48.388;16.210;2023-04-25T12:25:57;16.80;99.90
45685;DHT22;46836;48.388;16.210;2023-04-25T12:28:25;17.20;99.90
45685;DHT22;46836;48.388;16.210;2023-04-25T12:31:01;17.60;99.90
45685;DHT22;46836;48.388;16.210;2023-04-25T12:33:31;17.70;99.90
45685;DHT22;46836;48.388;16.210;2023-04-25T12:36:00;17.50;99.90
45685;DHT22;46836;48.388;16.210;2023-04-25T12:38:36;17.70;99.90
45685;DHT22;46836;48.388;16.210;2023-04-25T12:41:04;17.40;99.90
45685;DHT22;46836;48.388;16.210;2023-04-25T12:43:32;17.40;99.90
45685;DHT22;46836;48.388;16.210;2023-04-25T12:45:59;17.40;99.90
45685;DHT22;46836;48.388;16.210;2023-04-25T12:48:26;17.50;99.90
45685;DHT22;46836;48.388;16.210;2023-04-25T12:50:53;17.60;99.90
45685;DHT22;46836;48.388;16.210;2023-04-25T12:53:22;17.60;99.90
45685;DHT22;46836;48.388;16.210;2023-04-25T12:55:51;17.60;99.90
45685;DHT22;46836;48.388;16.210;2023-04-25T12:58:18;17.70;99.90
45685;DHT22;46836;48.388;16.210;2023-04-25T13:00:46;17.80;99.90
45685;DHT22;46836;48.388;16.210;2023-04-25T13:03:13;17.70;99.90
45685;DHT22;46836;48.388;16.210;2023-04-25T13:05:41;17.70;99.90
45685;DHT22;46836;48.388;16.210;2023-04-25T13:08:08;17.70;99.90
45685;DHT22;46836;48.388;16.210;2023-04-25T13:10:36;17.80;99.90
45685;DHT22;46836;48.388;16.210;2023-04-25T13:13:05;17.80;99.90
45685;DHT22;46836;48.388;16.210;2023-04-25T13:15:32;17.90;99.90
45685;DHT22;46836;48.388;16.210;2023-04-25T13:17:59;18.10;99.90
45685;DHT22;46836;48.388;16.210;2023-04-25T13:20:28;18.20;99.90
45685;DHT22;46836;48.388;16.210;2023-04-25T13:22:55;18.20;99.90
45685;DHT22;46836;48.388;16.210;2023-04-25T13:25:22;18.10;99.90
45685;DHT22;46836;48.388;16.210;2023-04-25T13:27:49;18.30;99.90
45685;DHT22;46836;48.388;16.210;2023-04-25T13:30:17;18.30;99.90
45685;DHT22;46836;48.388;16.210;2023-04-25T13:32:44;18.40;99.90
45685;DHT22;46836;48.388;16.210;2023-04-25T13:35:13;18.40;99.90
45685;DHT22;46836;48.388;16.210;2023-04-25T13:37:40;18.30;99.90
45685;DHT22;46836;48.388;16.210;2023-04-25T13:40:09;17.90;99.90
45685;DHT22;46836;48.388;16.210;2023-04-25T13:42:38;17.40;99.90
45685;DHT22;46836;48.388;16.210;2023-04-25T13:45:07;17.20;99.90
45685;DHT22;46836;48.388;16.210;2023-04-25T13:47:34;17.10;99.90
45685;DHT22;46836;48.388;16.210;2023-04-25T13:50:02;16.90;99.90
45685;DHT22;46836;48.388;16.210;2023-04-25T13:52:30;16.60;99.90
45685;DHT22;46836;48.388;16.210;2023-04-25T13:54:58;16.50;99.90
45685;DHT22;46836;48.388;16.210;2023-04-25T13:57:25;16.40;99.90
45685;DHT22;46836;48.388;16.210;2023-04-25T13:59:52;16.30;99.90
45685;DHT22;46836;48.388;16.210;2023-04-25T14:02:20;16.40;99.90
45685;DHT22;46836;48.388;16.210;2023-04-25T14:04:48;16.20;99.90
45685;DHT22;46836;48.388;16.210;2023-04-25T14:07:15;16.10;99.90
45685;DHT22;46836;48.388;16.210;2023-04-25T14:09:48;16.20;99.90
45685;DHT22;46836;48.388;16.210;2023-04-25T14:12:16;16.30;99.90
45685;DHT22;46836;48.388;16.210;2023-04-25T14:14:43;16.40;99.90
45685;DHT22;46836;48.388;16.210;2023-04-25T14:17:11;16.50;99.90
45685;DHT22;46836;48.388;16.210;2023-04-25T14:19:38;16.40;99.90
45685;DHT22;46836;48.388;16.210;2023-04-25T14:22:10;16.20;99.90
45685;DHT22;46836;48.388;16.210;2023-04-25T14:24:37;16.00;99.90
45685;DHT22;46836;48.388;16.210;2023-04-25T14:27:04;15.80;99.90
45685;DHT22;46836;48.388;16.210;2023-04-25T14:29:32;15.70;99.90
45685;DHT22;46836;48.388;16.210;2023-04-25T14:31:59;15.50;99.90
45685;DHT22;46836;48.388;16.210;2023-04-25T14:34:27;15.50;99.90
45685;DHT22;46836;48.388;16.210;2023-04-25T14:36:57;15.30;99.90
45685;DHT22;46836;48.388;16.210;2023-04-25T14:39:24;15.20;99.90
45685;DHT22;46836;48.388;16.210;2023-04-25T14:41:51;15.20;99.90
45685;DHT22;46836;48.388;16.210;2023-04-25T14:44:18;15.20;99.90
45685;DHT22;46836;48.388;16.210;2023-04-25T14:46:45;15.10;99.90
45685;DHT22;46836;48.388;16.210;2023-04-25T14:49:12;15.10;99.90
45685;DHT22;46836;48.388;16.210;2023-04-25T14:51:39;15.00;99.90
45685;DHT22;46836;48.388;16.210;2023-04-25T14:54:06;14.80;99.90
45685;DHT22;46836;48.388;16.210;2023-04-25T14:56:34;14.80;99.90
45685;DHT22;46836;48.388;16.210;2023-04-25T14:59:01;14.70;99.90
45685;DHT22;46836;48.388;16.210;2023-04-25T15:01:28;14.60;99.90
45685;DHT22;46836;48.388;16.210;2023-04-25T15:03:56;14.50;99.90
45685;DHT22;46836;48.388;16.210;2023-04-25T15:06:25;14.60;99.90
45685;DHT22;46836;48.388;16.210;2023-04-25T15:08:54;14.60;99.90
45685;DHT22;46836;48.388;16.210;2023-04-25T15:11:21;14.70;99.90
45685;DHT22;46836;48.388;16.210;2023-04-25T15:13:49;14.70;99.90
45685;DHT22;46836;48.388;16.210;2023-04-25T15:16:16;14.70;99.90
45685;DHT22;46836;48.388;16.210;2023-04-25T15:18:44;14.50;99.90
45685;DHT22;46836;48.388;16.210;2023-04-25T15:21:11;14.40;99.90
45685;DHT22;46836;48.388;16.210;2023-04-25T15:23:38;14.10;99.90
45685;DHT22;46836;48.388;16.210;2023-04-25T15:26:05;14.00;99.90
45685;DHT22;46836;48.388;16.210;2023-04-25T15:28:32;13.80;99.90
45685;DHT22;46836;48.388;16.210;2023-04-25T15:31:00;13.50;99.90